sensor_id;sensor_type;location;lat;lon;timestamp;P1;durP1;ratioP1;P2;durP2;ratioP2
37169;SDS011;23062;13.952;100.608;2022-07-23T00:02:26;6.00;;;4.00;;
37169;SDS011;23062;13.952;100.608;2022-07-23T00:07:16;7.00;;;4.00;;
37169;SDS011;23062;13.952;100.608;2022-07-23T00:12:06;6.00;;;4.00;;
37169;SDS011;23062;13.952;100.608;2022-07-23T00:16:55;8.00;;;5.00;;
37169;SDS011;23062;13.952;100.608;2022-07-23T00:21:45;6.00;;;4.00;;
37169;SDS011;23062;13.952;100.608;2022-07-23T00:26:35;5.00;;;3.00;;
37169;SDS011;23062;13.952;100.608;2022-07-23T00:31:25;5.00;;;3.00;;
37169;SDS011;23062;13.952;100.608;2022-07-23T00:36:15;6.00;;;4.00;;
37169;SDS011;23062;13.952;100.608;2022-07-23T00:41:05;8.00;;;6.00;;
37169;SDS011;23062;13.952;100.608;2022-07-23T00:45:54;8.00;;;5.00;;
37169;SDS011;23062;13.952;100.608;2022-07-23T00:50:44;5.00;;;3.00;;
37169;SDS011;23062;13.952;100.608;2022-07-23T00:55:34;3.00;;;2.00;;
37169;SDS011;23062;13.952;100.608;2022-07-23T01:00:24;3.00;;;2.00;;
37169;SDS011;23062;13.952;100.608;2022-07-23T01:05:14;6.00;;;4.00;;
37169;SDS011;23062;13.952;100.608;2022-07-23T01:10:05;3.00;;;2.00;;
37169;SDS011;23062;13.952;100.608;2022-07-23T01:14:56;4.00;;;3.00;;
37169;SDS011;23062;13.952;100.608;2022-07-23T01:19:48;4.00;;;3.00;;
37169;SDS011;23062;13.952;100.608;2022-07-23T01:24:38;4.00;;;3.00;;
37169;SDS011;23062;13.952;100.608;2022-07-23T01:29:27;3.00;;;1.87;;
37169;SDS011;23062;13.952;100.608;2022-07-23T01:34:18;6.00;;;4.00;;
37169;SDS011;23062;13.952;100.608;2022-07-23T01:39:08;5.00;;;3.00;;
37169;SDS011;23062;13.952;100.608;2022-07-23T01:43:58;6.00;;;4.00;;
37169;SDS011;23062;13.952;100.608;2022-07-23T01:48:48;6.00;;;4.00;;
37169;SDS011;23062;13.952;100.608;2022-07-23T01:53:38;6.00;;;4.00;;
37169;SDS011;23062;13.952;100.608;2022-07-23T01:58:28;5.00;;;3.00;;
37169;SDS011;23062;13.952;100.608;2022-07-23T02:03:20;6.00;;;4.00;;
37169;SDS011;23062;13.952;100.608;2022-07-23T02:08:11;6.00;;;4.00;;
37169;SDS011;23062;13.952;100.608;2022-07-23T02:13:01;7.00;;;5.00;;
37169;SDS011;23062;13.952;100.608;2022-07-23T02:17:53;6.00;;;4.00;;
37169;SDS011;23062;13.952;100.608;2022-07-23T02:22:42;5.00;;;3.00;;
37169;SDS011;23062;13.952;100.608;2022-07-23T02:27:32;5.00;;;3.00;;
37169;SDS011;23062;13.952;100.608;2022-07-23T02:32:22;6.00;;;4.00;;
37169;SDS011;23062;13.952;100.608;2022-07-23T02:37:12;6.00;;;4.00;;
37169;SDS011;23062;13.952;100.608;2022-07-23T02:42:02;6.00;;;4.00;;
37169;SDS011;23062;13.952;100.608;2022-07-23T02:46:53;7.00;;;5.00;;
37169;SDS011;23062;13.952;100.608;2022-07-23T02:51:43;8.00;;;5.00;;
37169;SDS011;23062;13.952;100.608;2022-07-23T02:56:34;5.00;;;3.00;;
37169;SDS011;23062;13.952;100.608;2022-07-23T03:01:24;7.00;;;5.00;;
37169;SDS011;23062;13.952;100.608;2022-07-23T03:06:14;9.00;;;6.00;;
37169;SDS011;23062;13.952;100.608;2022-07-23T03:11:05;6.00;;;4.00;;
37169;SDS011;23062;13.952;100.608;2022-07-23T03:15:56;8.00;;;4.67;;
37169;SDS011;23062;13.952;100.608;2022-07-23T03:20:46;8.00;;;6.00;;
37169;SDS011;23062;13.952;100.608;2022-07-23T03:25:36;8.00;;;6.00;;
37169;SDS011;23062;13.952;100.608;2022-07-23T03:30:26;5.00;;;3.73;;
37169;SDS011;23062;13.952;100.608;2022-07-23T03:35:16;8.00;;;5.00;;
37169;SDS011;23062;13.952;100.608;2022-07-23T03:40:06;18.00;;;13.00;;
37169;SDS011;23062;13.952;100.608;2022-07-23T03:44:56;13.00;;;9.00;;
37169;SDS011;23062;13.952;100.608;2022-07-23T03:49:46;11.00;;;8.00;;
37169;SDS011;23062;13.952;100.608;2022-07-23T03:54:37;11.00;;;8.00;;
37169;SDS011;23062;13.952;100.608;2022-07-23T03:59:27;21.00;;;16.00;;
37169;SDS011;23062;13.952;100.608;2022-07-23T04:04:17;26.00;;;19.00;;
37169;SDS011;23062;13.952;100.608;2022-07-23T04:09:07;23.00;;;17.00;;
37169;SDS011;23062;13.952;100.608;2022-07-23T04:13:56;21.00;;;16.00;;
37169;SDS011;23062;13.952;100.608;2022-07-23T04:18:47;16.00;;;12.00;;
37169;SDS011;23062;13.952;100.608;2022-07-23T04:23:37;30.00;;;23.00;;
37169;SDS011;23062;13.952;100.608;2022-07-23T04:28:26;23.00;;;17.00;;
37169;SDS011;23062;13.952;100.608;2022-07-23T04:33:16;14.00;;;11.00;;
37169;SDS011;23062;13.952;100.608;2022-07-23T04:38:07;13.00;;;10.00;;
37169;SDS011;23062;13.952;100.608;2022-07-23T04:42:57;13.00;;;9.00;;
37169;SDS011;23062;13.952;100.608;2022-07-23T04:47:47;12.00;;;9.00;;
37169;SDS011;23062;13.952;100.608;2022-07-23T04:52:37;11.00;;;7.00;;
37169;SDS011;23062;13.952;100.608;2022-07-23T04:57:26;7.00;;;5.00;;
37169;SDS011;23062;13.952;100.608;2022-07-23T05:02:16;9.00;;;6.00;;
37169;SDS011;23062;13.952;100.608;2022-07-23T05:07:06;8.00;;;6.00;;
37169;SDS011;23062;13.952;100.608;2022-07-23T05:11:56;10.00;;;7.00;;
37169;SDS011;23062;13.952;100.608;2022-07-23T05:16:45;10.00;;;7.00;;
37169;SDS011;23062;13.952;100.608;2022-07-23T05:21:35;7.00;;;5.00;;
37169;SDS011;23062;13.952;100.608;2022-07-23T05:26:25;7.00;;;5.00;;
37169;SDS011;23062;13.952;100.608;2022-07-23T05:31:15;6.00;;;4.00;;
37169;SDS011;23062;13.952;100.608;2022-07-23T05:36:05;5.00;;;3.00;;
37169;SDS011;23062;13.952;100.608;2022-07-23T05:40:57;6.00;;;4.00;;
37169;SDS011;23062;13.952;100.608;2022-07-23T05:45:47;8.00;;;5.00;;
37169;SDS011;23062;13.952;100.608;2022-07-23T05:50:37;7.00;;;5.00;;
37169;SDS011;23062;13.952;100.608;2022-07-23T05:55:27;5.00;;;3.00;;
37169;SDS011;23062;13.952;100.608;2022-07-23T06:00:19;6.00;;;4.00;;
37169;SDS011;23062;13.952;100.608;2022-07-23T06:05:09;3.00;;;2.00;;
37169;SDS011;23062;13.952;100.608;2022-07-23T06:10:00;16.00;;;11.00;;
37169;SDS011;23062;13.952;100.608;2022-07-23T06:14:51;24.00;;;17.00;;
37169;SDS011;23062;13.952;100.608;2022-07-23T06:19:43;14.00;;;10.00;;
37169;SDS011;23062;13.952;100.608;2022-07-23T06:24:32;16.00;;;11.00;;
37169;SDS011;23062;13.952;100.608;2022-07-23T06:29:23;10.00;;;7.00;;
37169;SDS011;23062;13.952;100.608;2022-07-23T06:34:13;6.00;;;4.00;;
37169;SDS011;23062;13.952;100.608;2022-07-23T06:39:03;7.00;;;5.00;;
37169;SDS011;23062;13.952;100.608;2022-07-23T06:43:53;31.00;;;24.00;;
37169;SDS011;23062;13.952;100.608;2022-07-23T06:48:43;73.00;;;57.00;;
37169;SDS011;23062;13.952;100.608;2022-07-23T06:53:33;38.00;;;28.00;;
37169;SDS011;23062;13.952;100.608;2022-07-23T06:58:22;18.00;;;13.00;;
37169;SDS011;23062;13.952;100.608;2022-07-23T07:03:12;11.00;;;8.00;;
37169;SDS011;23062;13.952;100.608;2022-07-23T07:08:02;12.00;;;8.00;;
37169;SDS011;23062;13.952;100.608;2022-07-23T07:12:52;7.00;;;5.00;;
37169;SDS011;23062;13.952;100.608;2022-07-23T07:17:42;7.00;;;5.00;;
37169;SDS011;23062;13.952;100.608;2022-07-23T07:22:32;8.00;;;6.00;;
37169;SDS011;23062;13.952;100.608;2022-07-23T07:27:21;8.00;;;5.00;;
37169;SDS011;23062;13.952;100.608;2022-07-23T07:32:11;9.00;;;6.00;;
37169;SDS011;23062;13.952;100.608;2022-07-23T07:37:01;7.00;;;5.00;;
37169;SDS011;23062;13.952;100.608;2022-07-23T07:41:51;9.00;;;6.00;;
37169;SDS011;23062;13.952;100.608;2022-07-23T07:46:42;9.00;;;7.00;;
37169;SDS011;23062;13.952;100.608;2022-07-23T07:51:32;9.00;;;6.00;;
37169;SDS011;23062;13.952;100.608;2022-07-23T07:56:22;7.00;;;5.00;;
37169;SDS011;23062;13.952;100.608;2022-07-23T08:01:12;7.00;;;4.00;;
37169;SDS011;23062;13.952;100.608;2022-07-23T08:06:02;7.00;;;5.00;;
37169;SDS011;23062;13.952;100.608;2022-07-23T08:10:52;6.00;;;4.00;;
37169;SDS011;23062;13.952;100.608;2022-07-23T08:15:42;6.00;;;4.00;;
37169;SDS011;23062;13.952;100.608;2022-07-23T08:20:34;8.00;;;5.00;;
37169;SDS011;23062;13.952;100.608;2022-07-23T08:25:30;9.00;;;6.00;;
37169;SDS011;23062;13.952;100.608;2022-07-23T08:30:21;9.00;;;6.00;;
37169;SDS011;23062;13.952;100.608;2022-07-23T08:35:11;8.00;;;5.00;;
37169;SDS011;23062;13.952;100.608;2022-07-23T08:40:00;6.00;;;4.00;;
37169;SDS011;23062;13.952;100.608;2022-07-23T08:44:53;8.00;;;5.00;;
37169;SDS011;23062;13.952;100.608;2022-07-23T08:49:45;6.00;;;4.00;;
37169;SDS011;23062;13.952;100.608;2022-07-23T08:54:36;7.00;;;5.00;;
37169;SDS011;23062;13.952;100.608;2022-07-23T08:59:29;7.00;;;5.00;;
37169;SDS011;23062;13.952;100.608;2022-07-23T09:04:19;8.00;;;5.60;;
37169;SDS011;23062;13.952;100.608;2022-07-23T09:09:18;6.00;;;4.00;;
37169;SDS011;23062;13.952;100.608;2022-07-23T09:14:08;6.00;;;4.00;;
37169;SDS011;23062;13.952;100.608;2022-07-23T09:18:59;6.00;;;4.00;;
37169;SDS011;23062;13.952;100.608;2022-07-23T09:24:04;7.00;;;5.00;;
37169;SDS011;23062;13.952;100.608;2022-07-23T09:28:55;4.00;;;3.00;;
37169;SDS011;23062;13.952;100.608;2022-07-23T09:33:46;4.00;;;2.00;;
37169;SDS011;23062;13.952;100.608;2022-07-23T09:38:36;4.00;;;3.00;;
37169;SDS011;23062;13.952;100.608;2022-07-23T09:43:34;4.00;;;2.00;;
37169;SDS011;23062;13.952;100.608;2022-07-23T09:48:23;5.00;;;3.00;;
37169;SDS011;23062;13.952;100.608;2022-07-23T09:53:25;5.00;;;3.00;;
37169;SDS011;23062;13.952;100.608;2022-07-23T09:58:15;3.00;;;2.00;;
37169;SDS011;23062;13.952;100.608;2022-07-23T10:03:07;5.00;;;3.00;;
37169;SDS011;23062;13.952;100.608;2022-07-23T10:07:59;4.00;;;3.00;;
37169;SDS011;23062;13.952;100.608;2022-07-23T10:12:52;5.00;;;3.00;;
37169;SDS011;23062;13.952;100.608;2022-07-23T10:17:48;5.00;;;3.00;;
37169;SDS011;23062;13.952;100.608;2022-07-23T10:22:39;6.00;;;4.00;;
37169;SDS011;23062;13.952;100.608;2022-07-23T10:27:51;5.00;;;3.00;;
37169;SDS011;23062;13.952;100.608;2022-07-23T10:32:48;6.00;;;4.00;;
37169;SDS011;23062;13.952;100.608;2022-07-23T10:37:43;5.00;;;3.00;;
37169;SDS011;23062;13.952;100.608;2022-07-23T10:42:39;3.00;;;2.00;;
37169;SDS011;23062;13.952;100.608;2022-07-23T10:47:28;4.00;;;3.00;;
37169;SDS011;23062;13.952;100.608;2022-07-23T10:52:27;5.00;;;3.00;;
37169;SDS011;23062;13.952;100.608;2022-07-23T10:57:17;7.00;;;4.00;;
37169;SDS011;23062;13.952;100.608;2022-07-23T11:02:20;4.00;;;3.00;;
37169;SDS011;23062;13.952;100.608;2022-07-23T11:07:12;8.00;;;5.00;;
37169;SDS011;23062;13.952;100.608;2022-07-23T11:17:21;7.00;;;5.00;;
37169;SDS011;23062;13.952;100.608;2022-07-23T11:22:11;6.00;;;4.00;;
37169;SDS011;23062;13.952;100.608;2022-07-23T11:27:03;6.00;;;4.00;;
37169;SDS011;23062;13.952;100.608;2022-07-23T11:36:49;4.00;;;3.00;;
37169;SDS011;23062;13.952;100.608;2022-07-23T11:41:44;6.00;;;4.00;;
37169;SDS011;23062;13.952;100.608;2022-07-23T11:46:34;7.00;;;4.00;;
37169;SDS011;23062;13.952;100.608;2022-07-23T11:51:27;6.00;;;4.00;;
37169;SDS011;23062;13.952;100.608;2022-07-23T11:56:18;8.00;;;6.00;;
37169;SDS011;23062;13.952;100.608;2022-07-23T12:01:08;9.00;;;6.00;;
37169;SDS011;23062;13.952;100.608;2022-07-23T12:05:57;4.00;;;3.00;;
37169;SDS011;23062;13.952;100.608;2022-07-23T12:10:48;4.00;;;3.00;;
37169;SDS011;23062;13.952;100.608;2022-07-23T12:15:39;8.00;;;5.00;;
37169;SDS011;23062;13.952;100.608;2022-07-23T12:20:34;8.00;;;6.00;;
37169;SDS011;23062;13.952;100.608;2022-07-23T12:25:29;8.00;;;5.00;;
37169;SDS011;23062;13.952;100.608;2022-07-23T12:30:21;6.00;;;4.00;;
37169;SDS011;23062;13.952;100.608;2022-07-23T12:35:14;6.00;;;4.00;;
37169;SDS011;23062;13.952;100.608;2022-07-23T12:45:14;6.00;;;4.00;;
37169;SDS011;23062;13.952;100.608;2022-07-23T12:50:05;6.00;;;4.00;;
37169;SDS011;23062;13.952;100.608;2022-07-23T12:54:59;5.00;;;3.00;;
37169;SDS011;23062;13.952;100.608;2022-07-23T12:59:49;9.00;;;7.00;;
37169;SDS011;23062;13.952;100.608;2022-07-23T13:04:38;8.00;;;5.00;;
37169;SDS011;23062;13.952;100.608;2022-07-23T13:09:29;9.00;;;6.00;;
37169;SDS011;23062;13.952;100.608;2022-07-23T13:14:21;7.00;;;5.00;;
37169;SDS011;23062;13.952;100.608;2022-07-23T13:19:12;6.00;;;4.00;;
37169;SDS011;23062;13.952;100.608;2022-07-23T13:24:02;6.00;;;4.00;;
37169;SDS011;23062;13.952;100.608;2022-07-23T13:28:53;8.00;;;5.00;;
37169;SDS011;23062;13.952;100.608;2022-07-23T13:33:43;7.00;;;5.00;;
37169;SDS011;23062;13.952;100.608;2022-07-23T13:38:33;7.00;;;5.00;;
37169;SDS011;23062;13.952;100.608;2022-07-23T13:43:23;9.00;;;6.00;;
37169;SDS011;23062;13.952;100.608;2022-07-23T13:48:13;6.00;;;4.00;;
37169;SDS011;23062;13.952;100.608;2022-07-23T13:53:04;9.00;;;5.60;;
37169;SDS011;23062;13.952;100.608;2022-07-23T13:57:59;6.00;;;4.00;;
37169;SDS011;23062;13.952;100.608;2022-07-23T14:02:50;8.00;;;6.00;;
37169;SDS011;23062;13.952;100.608;2022-07-23T14:07:40;7.00;;;5.00;;
37169;SDS011;23062;13.952;100.608;2022-07-23T14:12:30;8.00;;;6.00;;
37169;SDS011;23062;13.952;100.608;2022-07-23T14:17:21;9.00;;;6.00;;
37169;SDS011;23062;13.952;100.608;2022-07-23T14:22:11;6.00;;;4.00;;
37169;SDS011;23062;13.952;100.608;2022-07-23T14:27:00;7.00;;;4.67;;
37169;SDS011;23062;13.952;100.608;2022-07-23T14:31:51;6.00;;;3.73;;
37169;SDS011;23062;13.952;100.608;2022-07-23T14:36:41;5.00;;;3.00;;
37169;SDS011;23062;13.952;100.608;2022-07-23T14:41:31;5.00;;;2.80;;
37169;SDS011;23062;13.952;100.608;2022-07-23T14:46:20;5.00;;;3.00;;
37169;SDS011;23062;13.952;100.608;2022-07-23T14:51:10;9.00;;;6.00;;
37169;SDS011;23062;13.952;100.608;2022-07-23T14:56:00;6.00;;;4.00;;
37169;SDS011;23062;13.952;100.608;2022-07-23T15:00:50;6.00;;;4.00;;
37169;SDS011;23062;13.952;100.608;2022-07-23T15:05:40;9.00;;;6.00;;
37169;SDS011;23062;13.952;100.608;2022-07-23T15:10:32;8.00;;;5.00;;
37169;SDS011;23062;13.952;100.608;2022-07-23T15:15:21;6.00;;;4.00;;
37169;SDS011;23062;13.952;100.608;2022-07-23T15:20:11;8.00;;;5.00;;
37169;SDS011;23062;13.952;100.608;2022-07-23T15:25:02;7.00;;;5.00;;
37169;SDS011;23062;13.952;100.608;2022-07-23T15:29:52;8.00;;;5.00;;
37169;SDS011;23062;13.952;100.608;2022-07-23T15:34:43;6.00;;;4.00;;
37169;SDS011;23062;13.952;100.608;2022-07-23T15:39:33;6.00;;;4.00;;
37169;SDS011;23062;13.952;100.608;2022-07-23T15:44:23;7.00;;;5.00;;
37169;SDS011;23062;13.952;100.608;2022-07-23T15:49:13;9.00;;;6.00;;
37169;SDS011;23062;13.952;100.608;2022-07-23T15:54:03;6.00;;;4.00;;
37169;SDS011;23062;13.952;100.608;2022-07-23T15:58:53;8.00;;;5.00;;
37169;SDS011;23062;13.952;100.608;2022-07-23T16:03:43;6.00;;;4.00;;
37169;SDS011;23062;13.952;100.608;2022-07-23T16:08:33;6.00;;;4.00;;
37169;SDS011;23062;13.952;100.608;2022-07-23T16:13:26;8.00;;;6.00;;
37169;SDS011;23062;13.952;100.608;2022-07-23T16:18:15;6.00;;;4.00;;
37169;SDS011;23062;13.952;100.608;2022-07-23T16:23:05;6.00;;;4.00;;
37169;SDS011;23062;13.952;100.608;2022-07-23T16:27:55;6.00;;;4.00;;
37169;SDS011;23062;13.952;100.608;2022-07-23T16:32:45;9.00;;;7.00;;
37169;SDS011;23062;13.952;100.608;2022-07-23T16:37:35;7.00;;;5.00;;
37169;SDS011;23062;13.952;100.608;2022-07-23T16:42:24;8.00;;;5.00;;
37169;SDS011;23062;13.952;100.608;2022-07-23T16:47:15;9.00;;;6.00;;
37169;SDS011;23062;13.952;100.608;2022-07-23T16:52:08;8.00;;;5.00;;
37169;SDS011;23062;13.952;100.608;2022-07-23T16:56:59;7.00;;;5.00;;
37169;SDS011;23062;13.952;100.608;2022-07-23T17:01:48;9.00;;;6.00;;
37169;SDS011;23062;13.952;100.608;2022-07-23T17:06:38;8.00;;;5.00;;
37169;SDS011;23062;13.952;100.608;2022-07-23T17:11:28;6.00;;;4.00;;
37169;SDS011;23062;13.952;100.608;2022-07-23T17:16:19;8.00;;;6.00;;
37169;SDS011;23062;13.952;100.608;2022-07-23T17:21:09;7.00;;;5.00;;
37169;SDS011;23062;13.952;100.608;2022-07-23T17:25:59;6.00;;;4.00;;
37169;SDS011;23062;13.952;100.608;2022-07-23T17:30:49;7.00;;;5.00;;
37169;SDS011;23062;13.952;100.608;2022-07-23T17:35:39;9.00;;;6.00;;
37169;SDS011;23062;13.952;100.608;2022-07-23T17:40:29;8.00;;;5.00;;
37169;SDS011;23062;13.952;100.608;2022-07-23T17:45:19;10.00;;;7.00;;
37169;SDS011;23062;13.952;100.608;2022-07-23T17:50:11;8.00;;;6.00;;
37169;SDS011;23062;13.952;100.608;2022-07-23T17:55:02;6.00;;;4.00;;
37169;SDS011;23062;13.952;100.608;2022-07-23T17:59:54;6.00;;;4.00;;
37169;SDS011;23062;13.952;100.608;2022-07-23T18:04:43;6.00;;;4.00;;
37169;SDS011;23062;13.952;100.608;2022-07-23T18:09:33;8.00;;;6.00;;
37169;SDS011;23062;13.952;100.608;2022-07-23T18:14:24;7.00;;;5.00;;
37169;SDS011;23062;13.952;100.608;2022-07-23T18:19:13;9.00;;;6.00;;
37169;SDS011;23062;13.952;100.608;2022-07-23T18:24:05;7.00;;;5.00;;
37169;SDS011;23062;13.952;100.608;2022-07-23T18:28:55;7.00;;;5.00;;
37169;SDS011;23062;13.952;100.608;2022-07-23T18:33:45;8.00;;;6.00;;
37169;SDS011;23062;13.952;100.608;2022-07-23T18:38:35;6.00;;;4.00;;
37169;SDS011;23062;13.952;100.608;2022-07-23T18:43:25;9.00;;;6.00;;
37169;SDS011;23062;13.952;100.608;2022-07-23T18:48:14;11.00;;;7.00;;
37169;SDS011;23062;13.952;100.608;2022-07-23T18:53:04;8.00;;;6.00;;
37169;SDS011;23062;13.952;100.608;2022-07-23T18:57:54;7.00;;;5.00;;
37169;SDS011;23062;13.952;100.608;2022-07-23T19:02:45;9.00;;;6.00;;
37169;SDS011;23062;13.952;100.608;2022-07-23T19:07:35;7.00;;;4.00;;
37169;SDS011;23062;13.952;100.608;2022-07-23T19:12:25;9.00;;;6.00;;
37169;SDS011;23062;13.952;100.608;2022-07-23T19:17:15;9.00;;;6.00;;
37169;SDS011;23062;13.952;100.608;2022-07-23T19:22:05;9.00;;;6.00;;
37169;SDS011;23062;13.952;100.608;2022-07-23T19:26:55;6.00;;;3.73;;
37169;SDS011;23062;13.952;100.608;2022-07-23T19:31:45;9.00;;;6.00;;
37169;SDS011;23062;13.952;100.608;2022-07-23T19:36:35;8.00;;;5.00;;
37169;SDS011;23062;13.952;100.608;2022-07-23T19:41:27;9.00;;;6.00;;
37169;SDS011;23062;13.952;100.608;2022-07-23T19:46:16;7.00;;;5.00;;
37169;SDS011;23062;13.952;100.608;2022-07-23T19:51:07;10.00;;;7.00;;
37169;SDS011;23062;13.952;100.608;2022-07-23T19:55:57;6.00;;;3.73;;
37169;SDS011;23062;13.952;100.608;2022-07-23T20:00:47;7.00;;;5.00;;
37169;SDS011;23062;13.952;100.608;2022-07-23T20:05:37;6.00;;;4.00;;
37169;SDS011;23062;13.952;100.608;2022-07-23T20:10:27;8.00;;;5.00;;
37169;SDS011;23062;13.952;100.608;2022-07-23T20:15:17;9.00;;;6.00;;
37169;SDS011;23062;13.952;100.608;2022-07-23T20:20:07;9.00;;;6.00;;
37169;SDS011;23062;13.952;100.608;2022-07-23T20:24:58;9.00;;;6.00;;
37169;SDS011;23062;13.952;100.608;2022-07-23T20:29:48;6.00;;;4.00;;
37169;SDS011;23062;13.952;100.608;2022-07-23T20:34:38;9.00;;;6.00;;
37169;SDS011;23062;13.952;100.608;2022-07-23T20:39:28;8.00;;;6.00;;
37169;SDS011;23062;13.952;100.608;2022-07-23T20:44:18;9.00;;;6.00;;
37169;SDS011;23062;13.952;100.608;2022-07-23T20:49:08;8.00;;;5.00;;
37169;SDS011;23062;13.952;100.608;2022-07-23T20:53:59;9.00;;;7.00;;
37169;SDS011;23062;13.952;100.608;2022-07-23T20:58:51;7.00;;;5.00;;
37169;SDS011;23062;13.952;100.608;2022-07-23T21:03:41;9.00;;;6.00;;
37169;SDS011;23062;13.952;100.608;2022-07-23T21:08:31;7.00;;;4.67;;
37169;SDS011;23062;13.952;100.608;2022-07-23T21:13:21;8.00;;;5.00;;
37169;SDS011;23062;13.952;100.608;2022-07-23T21:18:11;8.00;;;6.00;;
37169;SDS011;23062;13.952;100.608;2022-07-23T21:23:02;8.00;;;6.00;;
37169;SDS011;23062;13.952;100.608;2022-07-23T21:27:52;9.00;;;6.00;;
37169;SDS011;23062;13.952;100.608;2022-07-23T21:32:41;7.00;;;5.00;;
37169;SDS011;23062;13.952;100.608;2022-07-23T21:37:31;9.00;;;6.00;;
37169;SDS011;23062;13.952;100.608;2022-07-23T21:42:21;8.00;;;6.00;;
37169;SDS011;23062;13.952;100.608;2022-07-23T21:47:11;8.00;;;6.00;;
37169;SDS011;23062;13.952;100.608;2022-07-23T21:52:01;7.00;;;5.00;;
37169;SDS011;23062;13.952;100.608;2022-07-23T21:56:51;9.00;;;6.00;;
37169;SDS011;23062;13.952;100.608;2022-07-23T22:01:41;10.00;;;7.00;;
37169;SDS011;23062;13.952;100.608;2022-07-23T22:06:31;12.00;;;9.00;;
37169;SDS011;23062;13.952;100.608;2022-07-23T22:11:21;11.00;;;8.00;;
37169;SDS011;23062;13.952;100.608;2022-07-23T22:16:11;11.00;;;8.00;;
37169;SDS011;23062;13.952;100.608;2022-07-23T22:21:00;11.00;;;8.00;;
37169;SDS011;23062;13.952;100.608;2022-07-23T22:25:50;13.00;;;9.00;;
37169;SDS011;23062;13.952;100.608;2022-07-23T22:30:43;13.00;;;10.00;;
37169;SDS011;23062;13.952;100.608;2022-07-23T22:35:32;12.00;;;8.00;;
37169;SDS011;23062;13.952;100.608;2022-07-23T22:40:24;9.00;;;6.00;;
37169;SDS011;23062;13.952;100.608;2022-07-23T22:45:14;9.00;;;7.00;;
37169;SDS011;23062;13.952;100.608;2022-07-23T22:50:05;11.00;;;8.00;;
37169;SDS011;23062;13.952;100.608;2022-07-23T22:54:57;11.00;;;8.00;;
37169;SDS011;23062;13.952;100.608;2022-07-23T22:59:48;9.00;;;7.00;;
37169;SDS011;23062;13.952;100.608;2022-07-23T23:04:40;12.00;;;8.00;;
37169;SDS011;23062;13.952;100.608;2022-07-23T23:09:29;12.00;;;8.00;;
37169;SDS011;23062;13.952;100.608;2022-07-23T23:14:19;12.00;;;8.00;;
37169;SDS011;23062;13.952;100.608;2022-07-23T23:19:09;12.00;;;8.00;;
37169;SDS011;23062;13.952;100.608;2022-07-23T23:23:59;8.00;;;6.00;;
37169;SDS011;23062;13.952;100.608;2022-07-23T23:28:48;9.00;;;6.00;;
37169;SDS011;23062;13.952;100.608;2022-07-23T23:33:38;8.00;;;6.00;;
37169;SDS011;23062;13.952;100.608;2022-07-23T23:38:27;8.00;;;5.00;;
37169;SDS011;23062;13.952;100.608;2022-07-23T23:43:18;9.00;;;6.00;;
37169;SDS011;23062;13.952;100.608;2022-07-23T23:48:08;8.00;;;5.00;;
37169;SDS011;23062;13.952;100.608;2022-07-23T23:52:57;7.00;;;5.00;;
37169;SDS011;23062;13.952;100.608;2022-07-23T23:57:48;8.00;;;6.00;;
